sensor_id;sensor_type;location;lat;lon;timestamp;temperature;humidity
21085;DHT22;34247;50.064;19.970;2023-05-14T00:01:03;27.30;25.70
21085;DHT22;34247;50.064;19.970;2023-05-14T00:02:15;27.30;25.70
21085;DHT22;34247;50.064;19.970;2023-05-14T00:03:25;27.30;25.70
21085;DHT22;34247;50.064;19.970;2023-05-14T00:04:32;27.30;25.70
21085;DHT22;34247;50.064;19.970;2023-05-14T00:05:42;27.20;25.70
21085;DHT22;34247;50.064;19.970;2023-05-14T00:06:48;27.30;25.80
21085;DHT22;34247;50.064;19.970;2023-05-14T00:07:52;27.20;25.80
21085;DHT22;34247;50.064;19.970;2023-05-14T00:08:57;27.20;25.70
21085;DHT22;34247;50.064;19.970;2023-05-14T00:10:01;27.20;25.70
21085;DHT22;34247;50.064;19.970;2023-05-14T00:11:06;27.20;25.80
21085;DHT22;34247;50.064;19.970;2023-05-14T00:12:21;27.20;25.80
21085;DHT22;34247;50.064;19.970;2023-05-14T00:13:31;27.20;25.90
21085;DHT22;34247;50.064;19.970;2023-05-14T00:14:46;27.20;25.90
21085;DHT22;34247;50.064;19.970;2023-05-14T00:15:50;27.10;25.90
21085;DHT22;34247;50.064;19.970;2023-05-14T00:16:54;27.10;25.90
21085;DHT22;34247;50.064;19.970;2023-05-14T00:17:59;27.10;25.90
21085;DHT22;34247;50.064;19.970;2023-05-14T00:19:03;27.10;25.90
21085;DHT22;34247;50.064;19.970;2023-05-14T00:20:09;27.10;26.00
21085;DHT22;34247;50.064;19.970;2023-05-14T00:21:14;27.10;26.00
21085;DHT22;34247;50.064;19.970;2023-05-14T00:22:22;27.10;26.00
21085;DHT22;34247;50.064;19.970;2023-05-14T00:23:29;27.10;26.00
21085;DHT22;34247;50.064;19.970;2023-05-14T00:24:33;27.10;26.00
21085;DHT22;34247;50.064;19.970;2023-05-14T00:25:38;27.10;26.00
21085;DHT22;34247;50.064;19.970;2023-05-14T00:26:42;27.10;26.00
21085;DHT22;34247;50.064;19.970;2023-05-14T00:27:46;27.10;26.00
21085;DHT22;34247;50.064;19.970;2023-05-14T00:28:50;27.10;25.90
21085;DHT22;34247;50.064;19.970;2023-05-14T00:29:54;27.10;26.00
21085;DHT22;34247;50.064;19.970;2023-05-14T00:30:58;27.10;26.00
21085;DHT22;34247;50.064;19.970;2023-05-14T00:32:03;27.10;26.00
21085;DHT22;34247;50.064;19.970;2023-05-14T00:33:10;27.00;26.00
21085;DHT22;34247;50.064;19.970;2023-05-14T00:34:14;27.00;26.00
21085;DHT22;34247;50.064;19.970;2023-05-14T00:35:18;27.00;26.00
21085;DHT22;34247;50.064;19.970;2023-05-14T00:36:24;27.00;26.10
21085;DHT22;34247;50.064;19.970;2023-05-14T00:37:28;27.00;26.20
21085;DHT22;34247;50.064;19.970;2023-05-14T00:38:32;27.00;26.20
21085;DHT22;34247;50.064;19.970;2023-05-14T00:39:36;27.00;26.20
21085;DHT22;34247;50.064;19.970;2023-05-14T00:40:40;27.00;26.20
21085;DHT22;34247;50.064;19.970;2023-05-14T00:41:48;27.00;26.20
21085;DHT22;34247;50.064;19.970;2023-05-14T00:42:53;27.00;26.20
21085;DHT22;34247;50.064;19.970;2023-05-14T00:43:59;27.00;26.20
21085;DHT22;34247;50.064;19.970;2023-05-14T00:45:03;27.00;26.20
21085;DHT22;34247;50.064;19.970;2023-05-14T00:46:11;27.00;26.20
21085;DHT22;34247;50.064;19.970;2023-05-14T00:47:16;26.90;26.20
21085;DHT22;34247;50.064;19.970;2023-05-14T00:48:23;26.90;26.20
21085;DHT22;34247;50.064;19.970;2023-05-14T00:49:27;27.00;26.30
21085;DHT22;34247;50.064;19.970;2023-05-14T00:50:35;27.00;26.30
21085;DHT22;34247;50.064;19.970;2023-05-14T00:51:40;26.90;26.30
21085;DHT22;34247;50.064;19.970;2023-05-14T00:52:45;26.90;26.20
21085;DHT22;34247;50.064;19.970;2023-05-14T00:53:51;26.90;26.30
21085;DHT22;34247;50.064;19.970;2023-05-14T00:54:56;26.90;26.30
21085;DHT22;34247;50.064;19.970;2023-05-14T00:56:02;26.90;26.30
21085;DHT22;34247;50.064;19.970;2023-05-14T00:57:07;26.90;26.30
21085;DHT22;34247;50.064;19.970;2023-05-14T00:58:13;26.90;26.30
21085;DHT22;34247;50.064;19.970;2023-05-14T00:59:17;26.80;26.30
21085;DHT22;34247;50.064;19.970;2023-05-14T01:00:21;26.80;26.30
21085;DHT22;34247;50.064;19.970;2023-05-14T01:01:26;26.80;26.20
21085;DHT22;34247;50.064;19.970;2023-05-14T01:02:39;26.80;26.30
21085;DHT22;34247;50.064;19.970;2023-05-14T01:04:13;26.80;26.30
21085;DHT22;34247;50.064;19.970;2023-05-14T01:05:24;26.80;26.30
21085;DHT22;34247;50.064;19.970;2023-05-14T01:07:38;26.80;26.40
21085;DHT22;34247;50.064;19.970;2023-05-14T01:09:35;26.80;26.40
21085;DHT22;34247;50.064;19.970;2023-05-14T01:11:18;26.70;26.40
21085;DHT22;34247;50.064;19.970;2023-05-14T01:14:06;26.70;26.50
21085;DHT22;34247;50.064;19.970;2023-05-14T01:15:27;26.70;26.40
21085;DHT22;34247;50.064;19.970;2023-05-14T01:16:39;26.70;26.40
21085;DHT22;34247;50.064;19.970;2023-05-14T01:18:03;26.60;26.40
21085;DHT22;34247;50.064;19.970;2023-05-14T01:19:25;26.60;26.40
21085;DHT22;34247;50.064;19.970;2023-05-14T01:20:40;26.60;26.40
21085;DHT22;34247;50.064;19.970;2023-05-14T01:21:44;26.60;26.40
21085;DHT22;34247;50.064;19.970;2023-05-14T01:22:56;26.60;26.50
21085;DHT22;34247;50.064;19.970;2023-05-14T01:24:09;26.50;26.50
21085;DHT22;34247;50.064;19.970;2023-05-14T01:25:27;26.50;26.50
21085;DHT22;34247;50.064;19.970;2023-05-14T01:26:37;26.50;26.50
21085;DHT22;34247;50.064;19.970;2023-05-14T01:29:23;26.50;26.50
21085;DHT22;34247;50.064;19.970;2023-05-14T01:31:35;26.50;26.30
21085;DHT22;34247;50.064;19.970;2023-05-14T01:32:40;26.50;26.60
21085;DHT22;34247;50.064;19.970;2023-05-14T01:33:48;26.40;26.50
21085;DHT22;34247;50.064;19.970;2023-05-14T01:34:59;26.40;26.60
21085;DHT22;34247;50.064;19.970;2023-05-14T01:36:10;26.40;26.80
21085;DHT22;34247;50.064;19.970;2023-05-14T01:37:19;26.40;26.70
21085;DHT22;34247;50.064;19.970;2023-05-14T01:38:34;26.40;26.70
21085;DHT22;34247;50.064;19.970;2023-05-14T01:39:51;26.40;26.70
21085;DHT22;34247;50.064;19.970;2023-05-14T01:41:25;26.40;26.70
21085;DHT22;34247;50.064;19.970;2023-05-14T01:42:32;26.40;26.70
21085;DHT22;34247;50.064;19.970;2023-05-14T01:43:38;26.40;26.70
21085;DHT22;34247;50.064;19.970;2023-05-14T01:44:44;26.40;26.70
21085;DHT22;34247;50.064;19.970;2023-05-14T01:45:48;26.40;26.70
21085;DHT22;34247;50.064;19.970;2023-05-14T01:47:02;26.30;26.80
21085;DHT22;34247;50.064;19.970;2023-05-14T01:48:26;26.30;26.70
21085;DHT22;34247;50.064;19.970;2023-05-14T01:49:33;26.30;26.70
21085;DHT22;34247;50.064;19.970;2023-05-14T01:50:40;26.30;26.70
21085;DHT22;34247;50.064;19.970;2023-05-14T01:51:45;26.30;26.80
21085;DHT22;34247;50.064;19.970;2023-05-14T01:52:49;26.30;26.80
21085;DHT22;34247;50.064;19.970;2023-05-14T01:53:57;26.30;26.80
21085;DHT22;34247;50.064;19.970;2023-05-14T01:55:10;26.30;26.80
21085;DHT22;34247;50.064;19.970;2023-05-14T01:56:19;26.20;26.80
21085;DHT22;34247;50.064;19.970;2023-05-14T01:57:29;26.20;26.80
21085;DHT22;34247;50.064;19.970;2023-05-14T01:58:33;26.20;26.90
21085;DHT22;34247;50.064;19.970;2023-05-14T01:59:42;26.20;26.90
21085;DHT22;34247;50.064;19.970;2023-05-14T03:01:37;25.70;27.40
21085;DHT22;34247;50.064;19.970;2023-05-14T03:03:36;25.70;27.50
21085;DHT22;34247;50.064;19.970;2023-05-14T03:05:35;25.70;27.50
21085;DHT22;34247;50.064;19.970;2023-05-14T03:07:39;25.70;27.50
21085;DHT22;34247;50.064;19.970;2023-05-14T03:09:37;25.70;27.50
21085;DHT22;34247;50.064;19.970;2023-05-14T03:11:36;25.70;27.60
21085;DHT22;34247;50.064;19.970;2023-05-14T03:13:34;25.60;27.50
21085;DHT22;34247;50.064;19.970;2023-05-14T03:15:34;25.60;27.60
21085;DHT22;34247;50.064;19.970;2023-05-14T03:17:32;25.60;27.50
21085;DHT22;34247;50.064;19.970;2023-05-14T03:19:30;25.60;27.60
21085;DHT22;34247;50.064;19.970;2023-05-14T03:21:28;25.60;27.60
21085;DHT22;34247;50.064;19.970;2023-05-14T03:23:27;25.60;27.70
21085;DHT22;34247;50.064;19.970;2023-05-14T03:25:25;25.60;27.70
21085;DHT22;34247;50.064;19.970;2023-05-14T03:27:23;25.60;27.60
21085;DHT22;34247;50.064;19.970;2023-05-14T03:29:21;25.60;27.70
21085;DHT22;34247;50.064;19.970;2023-05-14T03:31:19;25.60;27.70
21085;DHT22;34247;50.064;19.970;2023-05-14T03:33:17;25.60;27.90
21085;DHT22;34247;50.064;19.970;2023-05-14T03:35:16;25.60;27.90
21085;DHT22;34247;50.064;19.970;2023-05-14T03:37:13;25.50;27.80
21085;DHT22;34247;50.064;19.970;2023-05-14T03:39:12;25.50;27.80
21085;DHT22;34247;50.064;19.970;2023-05-14T03:41:09;25.50;27.90
21085;DHT22;34247;50.064;19.970;2023-05-14T03:43:08;25.60;27.90
21085;DHT22;34247;50.064;19.970;2023-05-14T03:45:06;25.50;27.90
21085;DHT22;34247;50.064;19.970;2023-05-14T03:47:05;25.60;28.10
21085;DHT22;34247;50.064;19.970;2023-05-14T03:49:04;25.60;28.00
21085;DHT22;34247;50.064;19.970;2023-05-14T03:51:04;25.50;27.90
21085;DHT22;34247;50.064;19.970;2023-05-14T03:53:08;25.50;28.00
21085;DHT22;34247;50.064;19.970;2023-05-14T03:55:06;25.50;28.00
21085;DHT22;34247;50.064;19.970;2023-05-14T03:57:20;25.40;28.00
21085;DHT22;34247;50.064;19.970;2023-05-14T03:59:19;25.40;28.10
21085;DHT22;34247;50.064;19.970;2023-05-14T04:01:18;25.40;28.10
21085;DHT22;34247;50.064;19.970;2023-05-14T04:03:16;25.50;28.30
21085;DHT22;34247;50.064;19.970;2023-05-14T04:05:15;25.50;28.20
21085;DHT22;34247;50.064;19.970;2023-05-14T04:07:13;25.50;28.20
21085;DHT22;34247;50.064;19.970;2023-05-14T04:09:12;25.50;28.20
21085;DHT22;34247;50.064;19.970;2023-05-14T04:11:10;25.50;28.30
21085;DHT22;34247;50.064;19.970;2023-05-14T04:13:08;25.50;28.20
21085;DHT22;34247;50.064;19.970;2023-05-14T04:15:08;25.50;28.30
21085;DHT22;34247;50.064;19.970;2023-05-14T04:17:10;25.50;28.20
21085;DHT22;34247;50.064;19.970;2023-05-14T04:19:10;25.60;28.30
21085;DHT22;34247;50.064;19.970;2023-05-14T04:21:10;25.60;28.30
21085;DHT22;34247;50.064;19.970;2023-05-14T04:23:08;25.60;28.30
21085;DHT22;34247;50.064;19.970;2023-05-14T04:25:06;25.60;28.20
21085;DHT22;34247;50.064;19.970;2023-05-14T04:27:05;25.60;28.30
21085;DHT22;34247;50.064;19.970;2023-05-14T04:29:04;25.60;28.30
21085;DHT22;34247;50.064;19.970;2023-05-14T04:31:03;25.60;28.20
21085;DHT22;34247;50.064;19.970;2023-05-14T04:33:02;25.70;28.20
21085;DHT22;34247;50.064;19.970;2023-05-14T04:35:03;25.70;28.20
21085;DHT22;34247;50.064;19.970;2023-05-14T04:37:03;25.70;28.20
21085;DHT22;34247;50.064;19.970;2023-05-14T04:39:02;25.70;28.20
21085;DHT22;34247;50.064;19.970;2023-05-14T04:41:01;25.70;28.10
21085;DHT22;34247;50.064;19.970;2023-05-14T04:43:00;25.70;28.20
21085;DHT22;34247;50.064;19.970;2023-05-14T04:45:00;25.70;28.20
21085;DHT22;34247;50.064;19.970;2023-05-14T04:47:03;25.70;28.20
21085;DHT22;34247;50.064;19.970;2023-05-14T04:49:02;25.70;28.20
21085;DHT22;34247;50.064;19.970;2023-05-14T04:51:02;25.80;28.30
21085;DHT22;34247;50.064;19.970;2023-05-14T04:53:04;25.90;28.40
21085;DHT22;34247;50.064;19.970;2023-05-14T04:55:04;25.90;28.30
21085;DHT22;34247;50.064;19.970;2023-05-14T04:57:07;26.00;28.30
21085;DHT22;34247;50.064;19.970;2023-05-14T04:59:05;26.00;28.30
21085;DHT22;34247;50.064;19.970;2023-05-14T05:01:04;26.10;28.20
21085;DHT22;34247;50.064;19.970;2023-05-14T05:03:03;26.30;28.10
21085;DHT22;34247;50.064;19.970;2023-05-14T05:05:02;26.40;28.00
21085;DHT22;34247;50.064;19.970;2023-05-14T05:07:01;26.50;27.90
21085;DHT22;34247;50.064;19.970;2023-05-14T05:08:50;26.70;27.70
21085;DHT22;34247;50.064;19.970;2023-05-14T05:10:31;26.90;27.50
21085;DHT22;34247;50.064;19.970;2023-05-14T11:12:46;34.00;20.10
21085;DHT22;34247;50.064;19.970;2023-05-14T11:14:10;34.00;19.90
21085;DHT22;34247;50.064;19.970;2023-05-14T11:15:20;34.00;20.30
21085;DHT22;34247;50.064;19.970;2023-05-14T11:16:30;34.10;20.50
21085;DHT22;34247;50.064;19.970;2023-05-14T11:17:40;34.10;20.50
21085;DHT22;34247;50.064;19.970;2023-05-14T11:18:59;34.10;20.50
21085;DHT22;34247;50.064;19.970;2023-05-14T11:20:09;34.10;20.50
21085;DHT22;34247;50.064;19.970;2023-05-14T11:21:17;34.10;20.30
21085;DHT22;34247;50.064;19.970;2023-05-14T11:22:24;34.10;20.30
21085;DHT22;34247;50.064;19.970;2023-05-14T11:23:35;34.10;20.30
21085;DHT22;34247;50.064;19.970;2023-05-14T11:24:48;34.20;20.40
21085;DHT22;34247;50.064;19.970;2023-05-14T11:25:55;34.20;20.50
21085;DHT22;34247;50.064;19.970;2023-05-14T11:27:29;34.10;20.30
21085;DHT22;34247;50.064;19.970;2023-05-14T11:28:35;34.20;20.30
21085;DHT22;34247;50.064;19.970;2023-05-14T11:29:44;34.20;20.50
21085;DHT22;34247;50.064;19.970;2023-05-14T11:30:53;34.30;20.80
21085;DHT22;34247;50.064;19.970;2023-05-14T11:31:59;34.30;20.20
21085;DHT22;34247;50.064;19.970;2023-05-14T11:33:05;34.30;20.00
21085;DHT22;34247;50.064;19.970;2023-05-14T11:34:09;34.30;19.90
21085;DHT22;34247;50.064;19.970;2023-05-14T11:35:14;34.30;20.10
21085;DHT22;34247;50.064;19.970;2023-05-14T11:36:25;34.30;20.20
21085;DHT22;34247;50.064;19.970;2023-05-14T11:37:31;34.30;20.90
21085;DHT22;34247;50.064;19.970;2023-05-14T11:38:47;34.20;20.10
21085;DHT22;34247;50.064;19.970;2023-05-14T11:40:13;34.20;20.20
21085;DHT22;34247;50.064;19.970;2023-05-14T11:41:21;34.20;20.60
21085;DHT22;34247;50.064;19.970;2023-05-14T11:42:26;34.30;20.50
21085;DHT22;34247;50.064;19.970;2023-05-14T11:43:37;34.30;20.30
21085;DHT22;34247;50.064;19.970;2023-05-14T11:44:51;34.30;20.10
21085;DHT22;34247;50.064;19.970;2023-05-14T11:46:04;34.40;20.10
21085;DHT22;34247;50.064;19.970;2023-05-14T11:47:17;34.40;20.00
21085;DHT22;34247;50.064;19.970;2023-05-14T11:48:25;34.50;20.00
21085;DHT22;34247;50.064;19.970;2023-05-14T11:49:30;34.50;20.00
21085;DHT22;34247;50.064;19.970;2023-05-14T11:50:51;34.50;20.20
21085;DHT22;34247;50.064;19.970;2023-05-14T11:52:03;34.40;20.00
21085;DHT22;34247;50.064;19.970;2023-05-14T11:53:35;34.50;20.00
21085;DHT22;34247;50.064;19.970;2023-05-14T11:54:48;34.50;19.90
21085;DHT22;34247;50.064;19.970;2023-05-14T11:55:59;34.50;20.00
21085;DHT22;34247;50.064;19.970;2023-05-14T11:57:18;34.50;20.00
21085;DHT22;34247;50.064;19.970;2023-05-14T11:58:23;34.50;19.90
21085;DHT22;34247;50.064;19.970;2023-05-14T11:59:38;34.60;20.00
21085;DHT22;34247;50.064;19.970;2023-05-14T12:00:44;34.50;20.00
21085;DHT22;34247;50.064;19.970;2023-05-14T12:01:52;34.60;20.10
21085;DHT22;34247;50.064;19.970;2023-05-14T12:03:01;34.60;19.80
21085;DHT22;34247;50.064;19.970;2023-05-14T12:04:06;34.50;19.70
21085;DHT22;34247;50.064;19.970;2023-05-14T12:05:12;34.60;19.70
21085;DHT22;34247;50.064;19.970;2023-05-14T12:06:20;34.60;19.80
21085;DHT22;34247;50.064;19.970;2023-05-14T12:07:28;34.60;19.90
21085;DHT22;34247;50.064;19.970;2023-05-14T12:08:33;34.60;19.70
21085;DHT22;34247;50.064;19.970;2023-05-14T12:09:38;34.60;19.60
21085;DHT22;34247;50.064;19.970;2023-05-14T12:10:47;34.60;19.50
21085;DHT22;34247;50.064;19.970;2023-05-14T12:11:51;34.60;19.60
21085;DHT22;34247;50.064;19.970;2023-05-14T12:12:55;34.60;19.70
21085;DHT22;34247;50.064;19.970;2023-05-14T12:13:59;34.60;19.60
21085;DHT22;34247;50.064;19.970;2023-05-14T12:15:14;34.60;19.50
21085;DHT22;34247;50.064;19.970;2023-05-14T12:16:21;34.60;19.50
21085;DHT22;34247;50.064;19.970;2023-05-14T12:17:33;34.60;19.50
21085;DHT22;34247;50.064;19.970;2023-05-14T12:18:36;34.60;19.50
21085;DHT22;34247;50.064;19.970;2023-05-14T12:19:43;34.60;19.60
21085;DHT22;34247;50.064;19.970;2023-05-14T12:21:00;34.50;19.50
21085;DHT22;34247;50.064;19.970;2023-05-14T12:22:13;34.50;19.60
21085;DHT22;34247;50.064;19.970;2023-05-14T12:23:31;34.50;19.70
21085;DHT22;34247;50.064;19.970;2023-05-14T12:24:36;34.60;19.50
21085;DHT22;34247;50.064;19.970;2023-05-14T12:25:51;34.60;19.40
21085;DHT22;34247;50.064;19.970;2023-05-14T12:27:09;34.60;19.40
21085;DHT22;34247;50.064;19.970;2023-05-14T12:28:18;34.60;19.40
21085;DHT22;34247;50.064;19.970;2023-05-14T12:29:48;34.60;19.50
21085;DHT22;34247;50.064;19.970;2023-05-14T12:30:55;34.60;19.40
21085;DHT22;34247;50.064;19.970;2023-05-14T12:32:07;34.70;19.40
21085;DHT22;34247;50.064;19.970;2023-05-14T12:33:12;34.60;19.30
21085;DHT22;34247;50.064;19.970;2023-05-14T12:34:19;34.60;19.30
21085;DHT22;34247;50.064;19.970;2023-05-14T12:35:23;34.60;19.30
21085;DHT22;34247;50.064;19.970;2023-05-14T12:36:28;34.60;19.30
21085;DHT22;34247;50.064;19.970;2023-05-14T12:37:33;34.60;19.20
21085;DHT22;34247;50.064;19.970;2023-05-14T12:38:39;34.60;19.10
21085;DHT22;34247;50.064;19.970;2023-05-14T12:39:55;34.60;19.10
21085;DHT22;34247;50.064;19.970;2023-05-14T12:41:04;34.60;19.10
21085;DHT22;34247;50.064;19.970;2023-05-14T12:42:09;34.60;19.10
21085;DHT22;34247;50.064;19.970;2023-05-14T12:43:17;34.50;19.00
21085;DHT22;34247;50.064;19.970;2023-05-14T12:44:29;34.50;19.00
21085;DHT22;34247;50.064;19.970;2023-05-14T12:45:48;34.50;19.10
21085;DHT22;34247;50.064;19.970;2023-05-14T12:47:09;34.50;18.90
21085;DHT22;34247;50.064;19.970;2023-05-14T12:48:16;34.50;18.90
21085;DHT22;34247;50.064;19.970;2023-05-14T12:49:21;34.50;19.00
21085;DHT22;34247;50.064;19.970;2023-05-14T12:50:30;34.40;18.90
21085;DHT22;34247;50.064;19.970;2023-05-14T12:51:45;34.50;19.10
21085;DHT22;34247;50.064;19.970;2023-05-14T12:52:51;34.50;19.10
21085;DHT22;34247;50.064;19.970;2023-05-14T12:54:06;34.50;19.30
21085;DHT22;34247;50.064;19.970;2023-05-14T12:55:18;34.50;19.20
21085;DHT22;34247;50.064;19.970;2023-05-14T12:56:34;34.50;19.40
21085;DHT22;34247;50.064;19.970;2023-05-14T12:57:40;34.50;19.40
21085;DHT22;34247;50.064;19.970;2023-05-14T12:58:44;34.50;20.00
21085;DHT22;34247;50.064;19.970;2023-05-14T12:59:51;34.50;19.40
21085;DHT22;34247;50.064;19.970;2023-05-14T13:00:56;34.50;19.40
21085;DHT22;34247;50.064;19.970;2023-05-14T13:02:01;34.50;19.30
21085;DHT22;34247;50.064;19.970;2023-05-14T13:03:06;34.50;19.20
21085;DHT22;34247;50.064;19.970;2023-05-14T13:04:18;34.50;19.10
21085;DHT22;34247;50.064;19.970;2023-05-14T13:05:28;34.50;19.30
21085;DHT22;34247;50.064;19.970;2023-05-14T13:06:32;34.40;19.30
21085;DHT22;34247;50.064;19.970;2023-05-14T13:07:41;34.40;19.30
21085;DHT22;34247;50.064;19.970;2023-05-14T13:08:49;34.40;19.40
21085;DHT22;34247;50.064;19.970;2023-05-14T13:09:53;34.40;19.50
21085;DHT22;34247;50.064;19.970;2023-05-14T13:11:04;34.40;19.30
21085;DHT22;34247;50.064;19.970;2023-05-14T13:12:08;34.40;19.30
21085;DHT22;34247;50.064;19.970;2023-05-14T13:13:14;34.50;19.40
21085;DHT22;34247;50.064;19.970;2023-05-14T13:14:28;34.50;19.20
21085;DHT22;34247;50.064;19.970;2023-05-14T13:15:32;34.40;19.10
21085;DHT22;34247;50.064;19.970;2023-05-14T13:16:36;34.40;19.20
21085;DHT22;34247;50.064;19.970;2023-05-14T13:17:40;34.40;19.10
21085;DHT22;34247;50.064;19.970;2023-05-14T13:18:45;34.40;19.00
21085;DHT22;34247;50.064;19.970;2023-05-14T13:19:49;34.40;19.10
21085;DHT22;34247;50.064;19.970;2023-05-14T13:20:53;34.40;19.20
21085;DHT22;34247;50.064;19.970;2023-05-14T13:21:57;34.40;19.20
21085;DHT22;34247;50.064;19.970;2023-05-14T13:23:00;34.50;19.30
21085;DHT22;34247;50.064;19.970;2023-05-14T13:24:05;34.40;19.10
21085;DHT22;34247;50.064;19.970;2023-05-14T13:25:09;34.50;19.10
21085;DHT22;34247;50.064;19.970;2023-05-14T13:26:17;34.40;19.20
21085;DHT22;34247;50.064;19.970;2023-05-14T13:27:28;34.50;19.20
21085;DHT22;34247;50.064;19.970;2023-05-14T13:28:42;34.40;18.80
21085;DHT22;34247;50.064;19.970;2023-05-14T13:30:04;34.50;19.00
21085;DHT22;34247;50.064;19.970;2023-05-14T13:31:20;34.50;19.00
21085;DHT22;34247;50.064;19.970;2023-05-14T13:32:26;34.50;19.20
21085;DHT22;34247;50.064;19.970;2023-05-14T13:33:35;34.50;19.00
21085;DHT22;34247;50.064;19.970;2023-05-14T13:34:48;34.50;19.00
21085;DHT22;34247;50.064;19.970;2023-05-14T13:35:58;34.50;19.40
21085;DHT22;34247;50.064;19.970;2023-05-14T13:37:15;34.50;19.20
21085;DHT22;34247;50.064;19.970;2023-05-14T13:38:35;34.60;18.90
21085;DHT22;34247;50.064;19.970;2023-05-14T13:39:55;34.70;18.50
21085;DHT22;34247;50.064;19.970;2023-05-14T13:41:00;34.70;18.50
21085;DHT22;34247;50.064;19.970;2023-05-14T13:42:09;34.70;18.40
21085;DHT22;34247;50.064;19.970;2023-05-14T13:43:18;34.70;18.30
21085;DHT22;34247;50.064;19.970;2023-05-14T13:44:24;34.60;18.30
21085;DHT22;34247;50.064;19.970;2023-05-14T13:45:34;34.60;18.40
21085;DHT22;34247;50.064;19.970;2023-05-14T13:46:38;34.60;18.50
21085;DHT22;34247;50.064;19.970;2023-05-14T13:47:58;34.60;18.40
21085;DHT22;34247;50.064;19.970;2023-05-14T13:49:13;34.60;18.40
21085;DHT22;34247;50.064;19.970;2023-05-14T13:50:17;34.60;18.40
21085;DHT22;34247;50.064;19.970;2023-05-14T13:52:04;34.70;18.30
21085;DHT22;34247;50.064;19.970;2023-05-14T13:53:14;34.70;18.30
21085;DHT22;34247;50.064;19.970;2023-05-14T13:54:37;34.70;18.10
21085;DHT22;34247;50.064;19.970;2023-05-14T13:55:46;34.70;18.20
21085;DHT22;34247;50.064;19.970;2023-05-14T13:57:18;34.80;18.20
21085;DHT22;34247;50.064;19.970;2023-05-14T13:58:31;34.80;18.30
21085;DHT22;34247;50.064;19.970;2023-05-14T14:00:13;34.80;18.30
21085;DHT22;34247;50.064;19.970;2023-05-14T14:01:31;34.80;18.30
21085;DHT22;34247;50.064;19.970;2023-05-14T14:02:40;34.70;18.30
21085;DHT22;34247;50.064;19.970;2023-05-14T14:04:09;34.80;18.20
21085;DHT22;34247;50.064;19.970;2023-05-14T14:05:28;34.70;18.10
21085;DHT22;34247;50.064;19.970;2023-05-14T14:06:43;34.70;18.10
21085;DHT22;34247;50.064;19.970;2023-05-14T14:07:51;34.80;18.10
21085;DHT22;34247;50.064;19.970;2023-05-14T14:09:32;34.70;18.00
21085;DHT22;34247;50.064;19.970;2023-05-14T14:10:42;34.60;17.80
21085;DHT22;34247;50.064;19.970;2023-05-14T14:11:52;34.60;17.80
21085;DHT22;34247;50.064;19.970;2023-05-14T14:12:59;34.60;18.00
21085;DHT22;34247;50.064;19.970;2023-05-14T14:14:06;34.60;18.00
21085;DHT22;34247;50.064;19.970;2023-05-14T14:15:30;34.60;18.00
21085;DHT22;34247;50.064;19.970;2023-05-14T14:16:34;34.60;18.00
21085;DHT22;34247;50.064;19.970;2023-05-14T14:17:39;34.60;17.60
21085;DHT22;34247;50.064;19.970;2023-05-14T14:18:52;34.50;17.80
21085;DHT22;34247;50.064;19.970;2023-05-14T14:20:00;34.50;17.90
21085;DHT22;34247;50.064;19.970;2023-05-14T14:21:27;34.50;17.70
21085;DHT22;34247;50.064;19.970;2023-05-14T14:22:36;34.50;17.80
21085;DHT22;34247;50.064;19.970;2023-05-14T14:23:55;34.40;17.90
21085;DHT22;34247;50.064;19.970;2023-05-14T14:25:08;34.50;18.00
21085;DHT22;34247;50.064;19.970;2023-05-14T14:26:23;34.40;18.00
21085;DHT22;34247;50.064;19.970;2023-05-14T14:27:36;34.40;17.90
21085;DHT22;34247;50.064;19.970;2023-05-14T14:28:54;34.40;18.10
21085;DHT22;34247;50.064;19.970;2023-05-14T14:30:01;34.40;18.00
21085;DHT22;34247;50.064;19.970;2023-05-14T14:31:21;34.40;18.00
21085;DHT22;34247;50.064;19.970;2023-05-14T14:32:31;34.30;18.10
21085;DHT22;34247;50.064;19.970;2023-05-14T14:33:45;34.20;18.00
21085;DHT22;34247;50.064;19.970;2023-05-14T14:34:55;34.20;18.10
21085;DHT22;34247;50.064;19.970;2023-05-14T14:36:03;34.20;18.10
21085;DHT22;34247;50.064;19.970;2023-05-14T14:37:14;34.10;18.10
21085;DHT22;34247;50.064;19.970;2023-05-14T14:38:35;34.10;18.20
21085;DHT22;34247;50.064;19.970;2023-05-14T14:39:58;34.10;18.20
21085;DHT22;34247;50.064;19.970;2023-05-14T14:41:15;34.10;18.30
21085;DHT22;34247;50.064;19.970;2023-05-14T14:42:28;34.10;18.40
21085;DHT22;34247;50.064;19.970;2023-05-14T14:43:38;34.10;18.50
21085;DHT22;34247;50.064;19.970;2023-05-14T14:44:47;34.10;18.60
21085;DHT22;34247;50.064;19.970;2023-05-14T14:45:55;34.10;18.90
21085;DHT22;34247;50.064;19.970;2023-05-14T14:47:02;34.10;19.50
21085;DHT22;34247;50.064;19.970;2023-05-14T14:48:28;34.10;19.10
21085;DHT22;34247;50.064;19.970;2023-05-14T14:49:49;34.10;19.20
21085;DHT22;34247;50.064;19.970;2023-05-14T14:50:55;34.10;19.30
21085;DHT22;34247;50.064;19.970;2023-05-14T14:52:11;34.10;19.90
21085;DHT22;34247;50.064;19.970;2023-05-14T14:53:28;34.10;19.40
21085;DHT22;34247;50.064;19.970;2023-05-14T14:54:46;34.10;19.50
21085;DHT22;34247;50.064;19.970;2023-05-14T14:56:29;34.00;19.60
21085;DHT22;34247;50.064;19.970;2023-05-14T14:57:42;34.00;19.60
21085;DHT22;34247;50.064;19.970;2023-05-14T14:58:49;34.10;19.80
21085;DHT22;34247;50.064;19.970;2023-05-14T15:00:03;34.10;19.60
21085;DHT22;34247;50.064;19.970;2023-05-14T15:01:13;34.10;19.60
21085;DHT22;34247;50.064;19.970;2023-05-14T15:02:23;34.10;19.50
21085;DHT22;34247;50.064;19.970;2023-05-14T15:03:28;34.10;19.60
21085;DHT22;34247;50.064;19.970;2023-05-14T15:04:37;34.10;19.50
21085;DHT22;34247;50.064;19.970;2023-05-14T15:05:55;34.10;19.70
21085;DHT22;34247;50.064;19.970;2023-05-14T15:07:16;34.10;19.60
21085;DHT22;34247;50.064;19.970;2023-05-14T15:08:27;34.00;19.50
21085;DHT22;34247;50.064;19.970;2023-05-14T15:09:35;34.00;19.60
21085;DHT22;34247;50.064;19.970;2023-05-14T15:10:41;33.90;19.50
21085;DHT22;34247;50.064;19.970;2023-05-14T15:11:48;33.90;19.60
21085;DHT22;34247;50.064;19.970;2023-05-14T15:12:58;33.90;19.70
21085;DHT22;34247;50.064;19.970;2023-05-14T15:14:06;33.90;19.70
21085;DHT22;34247;50.064;19.970;2023-05-14T15:15:17;33.80;19.70
21085;DHT22;34247;50.064;19.970;2023-05-14T15:16:39;33.80;19.80
21085;DHT22;34247;50.064;19.970;2023-05-14T15:17:47;33.90;19.80
21085;DHT22;34247;50.064;19.970;2023-05-14T15:19:00;33.90;19.70
21085;DHT22;34247;50.064;19.970;2023-05-14T15:20:07;33.80;19.80